Time,TemperatureF,DewpointF,PressureIn,WindDirection,WindDirectionDegrees,WindSpeedMPH,WindSpeedGustMPH,Humidity,HourlyPrecipIn,Conditions,Clouds,dailyrainin,SoftwareType,DateUTC
2013-08-01 00:23:00,72.0,67.0,30.08,NE,37,0.0,0.0,85,0.00,,,0.00,,2013-08-01 05:23:00,
2013-08-01 00:33:00,72.0,67.0,30.08,NE,37,0.0,0.0,85,0.00,,,0.00,,2013-08-01 05:33:00,
2013-08-01 00:43:00,72.0,67.0,30.08,NE,37,0.0,0.0,85,0.00,,,0.00,,2013-08-01 05:43:00,
2013-08-01 00:53:00,72.0,67.0,30.08,NE,37,0.0,0.0,85,0.00,,,0.00,,2013-08-01 05:53:00,
2013-08-01 01:02:00,72.0,67.0,30.08,NE,37,0.0,0.0,85,0.00,,,0.00,,2013-08-01 06:02:00,
2013-08-01 02:03:00,70.0,66.0,30.07,SSW,207,1.0,2.0,86,0.00,,,0.00,,2013-08-01 07:03:00,
2013-08-01 02:23:00,70.0,66.0,30.07,SSW,207,1.0,2.0,86,0.00,,,0.00,,2013-08-01 07:23:00,
2013-08-01 02:32:00,70.0,66.0,30.07,SSW,207,1.0,2.0,86,0.00,,,0.00,,2013-08-01 07:32:00,
2013-08-01 02:43:00,70.0,66.0,30.07,SSW,207,1.0,2.0,86,0.00,,,0.00,,2013-08-01 07:43:00,
2013-08-01 02:55:00,70.0,66.0,30.07,SSW,207,1.0,2.0,86,0.00,,,0.00,,2013-08-01 07:55:00,
2013-08-01 04:03:00,68.0,65.0,30.08,SW,225,0.0,1.0,90,0.00,,,0.00,,2013-08-01 09:03:00,
2013-08-01 04:49:00,68.0,65.0,30.08,SW,225,0.0,1.0,90,0.00,,,0.00,,2013-08-01 09:49:00,
2013-08-01 06:03:00,67.0,65.0,30.09,SW,231,0.0,1.0,92,0.00,,,0.00,,2013-08-01 11:03:00,
2013-08-01 06:48:00,67.0,65.0,30.09,SW,231,0.0,1.0,92,0.00,,,0.00,,2013-08-01 11:48:00,
2013-08-01 08:03:00,73.0,67.0,30.09,South,188,3.0,5.0,82,0.00,,,0.00,,2013-08-01 13:03:00,
2013-08-01 08:55:00,73.0,67.0,30.09,South,188,3.0,5.0,82,0.00,,,0.00,,2013-08-01 13:55:00,
2013-08-01 10:03:00,82.0,69.0,30.10,SSE,167,1.0,3.0,64,0.00,,,0.00,,2013-08-01 15:03:00,
2013-08-01 10:34:00,82.0,69.0,30.10,SSE,167,1.0,3.0,64,0.00,,,0.00,,2013-08-01 15:34:00,
2013-08-01 10:40:00,82.0,69.0,30.10,SSE,167,1.0,3.0,64,0.00,,,0.00,,2013-08-01 15:40:00,
2013-08-01 12:03:00,86.0,66.0,30.09,NNW,333,1.0,6.0,52,0.00,,,0.00,,2013-08-01 17:03:00,
2013-08-01 14:02:00,88.0,66.0,30.06,NNE,23,5.0,6.0,48,0.00,,,0.00,,2013-08-01 19:02:00,
2013-08-01 14:34:00,88.0,66.0,30.06,NNE,23,5.0,6.0,48,0.00,,,0.00,,2013-08-01 19:34:00,
2013-08-01 15:00:00,88.0,66.0,30.06,NNE,23,5.0,6.0,48,0.00,,,0.00,,2013-08-01 20:00:00,
2013-08-01 16:28:00,89.0,64.0,30.01,SSW,205,5.0,9.0,44,0.00,,,0.00,,2013-08-01 21:28:00,
2013-08-01 16:35:00,89.0,64.0,30.01,SSW,205,5.0,9.0,44,0.00,,,0.00,,2013-08-01 21:35:00,
2013-08-01 16:43:00,89.0,64.0,30.01,SSW,205,5.0,9.0,44,0.00,,,0.00,,2013-08-01 21:43:00,
2013-08-01 16:53:00,89.0,64.0,30.01,SSW,205,5.0,9.0,44,0.00,,,0.00,,2013-08-01 21:53:00,
2013-08-01 18:03:00,89.0,62.0,29.98,SE,142,6.0,10.0,41,0.00,,,0.00,,2013-08-01 23:03:00,
2013-08-01 18:25:00,89.0,62.0,29.98,SE,142,6.0,10.0,41,0.00,,,0.00,,2013-08-01 23:25:00,
2013-08-01 18:33:00,89.0,62.0,29.98,SE,142,6.0,10.0,41,0.00,,,0.00,,2013-08-01 23:33:00,
2013-08-01 18:52:00,89.0,62.0,29.98,SE,142,6.0,10.0,41,0.00,,,0.00,,2013-08-01 23:52:00,
2013-08-01 19:00:00,89.0,62.0,29.98,SE,142,6.0,10.0,41,0.00,,,0.00,,2013-08-02 00:00:00,
2013-08-01 20:03:00,86.0,65.0,29.95,SW,214,2.0,7.0,50,0.00,,,0.00,,2013-08-02 01:03:00,
2013-08-01 20:31:00,86.0,65.0,29.95,SW,214,2.0,7.0,50,0.00,,,0.00,,2013-08-02 01:31:00,
2013-08-01 20:42:00,86.0,65.0,29.95,SW,214,2.0,7.0,50,0.00,,,0.00,,2013-08-02 01:42:00,
2013-08-01 21:00:00,86.0,65.0,29.95,SW,214,2.0,7.0,50,0.00,,,0.00,,2013-08-02 02:00:00,
2013-08-01 22:23:00,80.0,67.0,29.96,South,173,3.0,6.0,65,0.00,,,0.00,,2013-08-02 03:23:00,
2013-08-01 22:40:00,80.0,67.0,29.96,South,173,3.0,6.0,65,0.00,,,0.00,,2013-08-02 03:40:00,
2013-08-01 22:52:00,80.0,67.0,29.96,South,173,3.0,6.0,65,0.00,,,0.00,,2013-08-02 03:52:00,
2013-08-01 23:02:00,80.0,67.0,29.96,South,173,3.0,6.0,65,0.00,,,0.00,,2013-08-02 04:02:00,